sensor_id;sensor_type;location;lat;lon;timestamp;P1;durP1;ratioP1;P2;durP2;ratioP2
58302;SDS011;44109;52.398;7.024;2023-07-22T00:00:38;4.50;;;2.05;;
58302;SDS011;44109;52.398;7.024;2023-07-22T00:03:05;7.25;;;2.55;;
58302;SDS011;44109;52.398;7.024;2023-07-22T00:05:33;8.10;;;2.22;;
58302;SDS011;44109;52.398;7.024;2023-07-22T00:08:00;5.50;;;2.55;;
58302;SDS011;44109;52.398;7.024;2023-07-22T00:10:29;6.97;;;2.70;;
58302;SDS011;44109;52.398;7.024;2023-07-22T00:12:56;4.45;;;2.63;;
58302;SDS011;44109;52.398;7.024;2023-07-22T00:15:24;4.97;;;2.42;;
58302;SDS011;44109;52.398;7.024;2023-07-22T00:17:53;7.35;;;2.55;;
58302;SDS011;44109;52.398;7.024;2023-07-22T00:20:21;3.58;;;1.95;;
58302;SDS011;44109;52.398;7.024;2023-07-22T00:22:49;5.13;;;2.63;;
58302;SDS011;44109;52.398;7.024;2023-07-22T00:25:17;6.45;;;3.53;;
58302;SDS011;44109;52.398;7.024;2023-07-22T00:27:45;3.10;;;2.00;;
58302;SDS011;44109;52.398;7.024;2023-07-22T00:30:12;5.78;;;2.70;;
58302;SDS011;44109;52.398;7.024;2023-07-22T00:32:40;5.03;;;2.63;;
58302;SDS011;44109;52.398;7.024;2023-07-22T00:35:09;11.40;;;3.50;;
58302;SDS011;44109;52.398;7.024;2023-07-22T00:37:37;5.15;;;2.72;;
58302;SDS011;44109;52.398;7.024;2023-07-22T00:40:05;9.13;;;3.13;;
58302;SDS011;44109;52.398;7.024;2023-07-22T00:42:37;9.20;;;3.40;;
58302;SDS011;44109;52.398;7.024;2023-07-22T00:45:06;5.55;;;2.63;;
58302;SDS011;44109;52.398;7.024;2023-07-22T00:47:35;6.15;;;3.15;;
58302;SDS011;44109;52.398;7.024;2023-07-22T00:50:04;8.60;;;3.35;;
58302;SDS011;44109;52.398;7.024;2023-07-22T00:52:36;7.57;;;3.97;;
58302;SDS011;44109;52.398;7.024;2023-07-22T00:55:05;8.10;;;3.17;;
58302;SDS011;44109;52.398;7.024;2023-07-22T00:57:34;6.78;;;3.40;;
58302;SDS011;44109;52.398;7.024;2023-07-22T01:00:03;5.35;;;2.70;;
58302;SDS011;44109;52.398;7.024;2023-07-22T01:02:32;8.02;;;3.20;;
58302;SDS011;44109;52.398;7.024;2023-07-22T01:05:00;6.20;;;3.13;;
58302;SDS011;44109;52.398;7.024;2023-07-22T01:07:29;6.38;;;2.85;;
58302;SDS011;44109;52.398;7.024;2023-07-22T01:09:57;9.88;;;2.63;;
58302;SDS011;44109;52.398;7.024;2023-07-22T01:12:25;5.80;;;3.22;;
58302;SDS011;44109;52.398;7.024;2023-07-22T01:14:53;8.75;;;4.13;;
58302;SDS011;44109;52.398;7.024;2023-07-22T01:17:20;8.48;;;3.42;;
58302;SDS011;44109;52.398;7.024;2023-07-22T01:19:48;6.90;;;3.42;;
58302;SDS011;44109;52.398;7.024;2023-07-22T01:22:16;6.03;;;2.90;;
58302;SDS011;44109;52.398;7.024;2023-07-22T01:24:46;5.18;;;3.17;;
58302;SDS011;44109;52.398;7.024;2023-07-22T01:27:14;7.03;;;4.05;;
58302;SDS011;44109;52.398;7.024;2023-07-22T01:29:42;10.65;;;5.15;;
58302;SDS011;44109;52.398;7.024;2023-07-22T01:32:10;5.97;;;3.53;;
58302;SDS011;44109;52.398;7.024;2023-07-22T01:34:37;7.65;;;3.75;;
58302;SDS011;44109;52.398;7.024;2023-07-22T01:37:05;7.25;;;3.65;;
58302;SDS011;44109;52.398;7.024;2023-07-22T01:39:33;6.60;;;3.15;;
58302;SDS011;44109;52.398;7.024;2023-07-22T01:42:02;8.00;;;2.97;;
58302;SDS011;44109;52.398;7.024;2023-07-22T01:44:30;7.70;;;3.88;;
58302;SDS011;44109;52.398;7.024;2023-07-22T01:47:01;7.38;;;2.95;;
58302;SDS011;44109;52.398;7.024;2023-07-22T01:49:29;7.93;;;3.63;;
58302;SDS011;44109;52.398;7.024;2023-07-22T01:51:57;7.00;;;3.20;;
58302;SDS011;44109;52.398;7.024;2023-07-22T01:54:24;7.80;;;4.45;;
58302;SDS011;44109;52.398;7.024;2023-07-22T01:56:52;6.30;;;3.90;;
58302;SDS011;44109;52.398;7.024;2023-07-22T01:59:22;6.75;;;3.78;;
58302;SDS011;44109;52.398;7.024;2023-07-22T02:01:49;6.78;;;2.90;;
58302;SDS011;44109;52.398;7.024;2023-07-22T02:04:17;12.18;;;3.47;;
58302;SDS011;44109;52.398;7.024;2023-07-22T02:06:45;8.60;;;3.85;;
58302;SDS011;44109;52.398;7.024;2023-07-22T02:09:13;7.40;;;4.20;;
58302;SDS011;44109;52.398;7.024;2023-07-22T02:11:41;7.15;;;3.05;;
58302;SDS011;44109;52.398;7.024;2023-07-22T02:14:09;6.80;;;2.92;;
58302;SDS011;44109;52.398;7.024;2023-07-22T02:16:38;5.32;;;2.63;;
58302;SDS011;44109;52.398;7.024;2023-07-22T02:19:05;4.60;;;2.80;;
58302;SDS011;44109;52.398;7.024;2023-07-22T02:21:33;5.68;;;2.33;;
58302;SDS011;44109;52.398;7.024;2023-07-22T02:24:00;5.68;;;2.85;;
58302;SDS011;44109;52.398;7.024;2023-07-22T02:26:28;7.85;;;2.95;;
58302;SDS011;44109;52.398;7.024;2023-07-22T02:28:56;3.72;;;2.17;;
58302;SDS011;44109;52.398;7.024;2023-07-22T02:31:23;8.23;;;3.13;;
58302;SDS011;44109;52.398;7.024;2023-07-22T02:33:52;7.10;;;2.20;;
58302;SDS011;44109;52.398;7.024;2023-07-22T02:36:20;8.40;;;3.60;;
58302;SDS011;44109;52.398;7.024;2023-07-22T02:38:47;7.22;;;3.08;;
58302;SDS011;44109;52.398;7.024;2023-07-22T02:41:15;4.70;;;2.38;;
58302;SDS011;44109;52.398;7.024;2023-07-22T02:43:43;7.85;;;2.85;;
58302;SDS011;44109;52.398;7.024;2023-07-22T02:46:10;6.70;;;2.75;;
58302;SDS011;44109;52.398;7.024;2023-07-22T02:48:38;5.07;;;2.42;;
58302;SDS011;44109;52.398;7.024;2023-07-22T02:51:08;3.90;;;1.67;;
58302;SDS011;44109;52.398;7.024;2023-07-22T02:53:37;5.78;;;3.08;;
58302;SDS011;44109;52.398;7.024;2023-07-22T02:56:05;4.20;;;2.55;;
58302;SDS011;44109;52.398;7.024;2023-07-22T02:58:33;5.43;;;2.80;;
58302;SDS011;44109;52.398;7.024;2023-07-22T03:01:03;5.72;;;2.67;;
58302;SDS011;44109;52.398;7.024;2023-07-22T03:03:31;5.40;;;2.85;;
58302;SDS011;44109;52.398;7.024;2023-07-22T03:05:59;5.90;;;3.03;;
58302;SDS011;44109;52.398;7.024;2023-07-22T03:08:29;4.93;;;2.55;;
58302;SDS011;44109;52.398;7.024;2023-07-22T03:10:57;5.50;;;2.20;;
58302;SDS011;44109;52.398;7.024;2023-07-22T03:13:25;4.90;;;3.13;;
58302;SDS011;44109;52.398;7.024;2023-07-22T03:15:55;7.68;;;3.65;;
58302;SDS011;44109;52.398;7.024;2023-07-22T03:18:23;4.90;;;2.33;;
58302;SDS011;44109;52.398;7.024;2023-07-22T03:20:50;6.50;;;3.30;;
58302;SDS011;44109;52.398;7.024;2023-07-22T03:23:18;5.85;;;2.47;;
58302;SDS011;44109;52.398;7.024;2023-07-22T03:25:48;6.47;;;3.53;;
58302;SDS011;44109;52.398;7.024;2023-07-22T03:28:15;7.50;;;3.30;;
58302;SDS011;44109;52.398;7.024;2023-07-22T03:30:44;5.68;;;3.40;;
58302;SDS011;44109;52.398;7.024;2023-07-22T03:33:12;6.25;;;2.35;;
58302;SDS011;44109;52.398;7.024;2023-07-22T03:35:40;5.03;;;3.05;;
58302;SDS011;44109;52.398;7.024;2023-07-22T03:38:08;5.55;;;2.17;;
58302;SDS011;44109;52.398;7.024;2023-07-22T03:40:35;5.68;;;2.60;;
58302;SDS011;44109;52.398;7.024;2023-07-22T03:43:05;6.43;;;3.45;;
58302;SDS011;44109;52.398;7.024;2023-07-22T03:45:33;6.20;;;2.78;;
58302;SDS011;44109;52.398;7.024;2023-07-22T03:48:00;4.00;;;2.75;;
58302;SDS011;44109;52.398;7.024;2023-07-22T03:50:28;6.60;;;3.22;;
58302;SDS011;44109;52.398;7.024;2023-07-22T03:52:56;4.88;;;2.65;;
58302;SDS011;44109;52.398;7.024;2023-07-22T03:55:24;4.43;;;2.55;;
58302;SDS011;44109;52.398;7.024;2023-07-22T03:57:52;6.43;;;2.75;;
58302;SDS011;44109;52.398;7.024;2023-07-22T04:00:21;6.20;;;3.08;;
58302;SDS011;44109;52.398;7.024;2023-07-22T04:02:49;8.65;;;2.97;;
58302;SDS011;44109;52.398;7.024;2023-07-22T04:05:16;8.52;;;3.00;;
58302;SDS011;44109;52.398;7.024;2023-07-22T04:07:44;6.20;;;2.53;;
58302;SDS011;44109;52.398;7.024;2023-07-22T04:10:12;3.78;;;2.33;;
58302;SDS011;44109;52.398;7.024;2023-07-22T04:12:39;7.07;;;3.03;;
58302;SDS011;44109;52.398;7.024;2023-07-22T04:15:07;8.63;;;3.30;;
58302;SDS011;44109;52.398;7.024;2023-07-22T04:17:37;6.78;;;4.20;;
58302;SDS011;44109;52.398;7.024;2023-07-22T04:20:06;8.90;;;4.00;;
58302;SDS011;44109;52.398;7.024;2023-07-22T04:22:35;8.30;;;3.92;;
58302;SDS011;44109;52.398;7.024;2023-07-22T04:25:03;5.88;;;3.45;;
58302;SDS011;44109;52.398;7.024;2023-07-22T04:27:32;6.32;;;3.55;;
58302;SDS011;44109;52.398;7.024;2023-07-22T04:30:00;8.73;;;3.70;;
58302;SDS011;44109;52.398;7.024;2023-07-22T04:32:28;7.70;;;3.50;;
58302;SDS011;44109;52.398;7.024;2023-07-22T04:34:57;6.97;;;3.40;;
58302;SDS011;44109;52.398;7.024;2023-07-22T04:37:25;6.45;;;3.22;;
58302;SDS011;44109;52.398;7.024;2023-07-22T04:39:53;10.13;;;4.60;;
58302;SDS011;44109;52.398;7.024;2023-07-22T04:42:20;7.78;;;3.65;;
58302;SDS011;44109;52.398;7.024;2023-07-22T04:44:48;8.27;;;3.97;;
58302;SDS011;44109;52.398;7.024;2023-07-22T04:47:16;7.15;;;3.10;;
58302;SDS011;44109;52.398;7.024;2023-07-22T04:49:43;13.05;;;5.03;;
58302;SDS011;44109;52.398;7.024;2023-07-22T04:52:12;6.82;;;3.92;;
58302;SDS011;44109;52.398;7.024;2023-07-22T04:54:41;6.40;;;3.83;;
58302;SDS011;44109;52.398;7.024;2023-07-22T04:57:08;9.38;;;5.10;;
58302;SDS011;44109;52.398;7.024;2023-07-22T04:59:36;7.68;;;4.55;;
58302;SDS011;44109;52.398;7.024;2023-07-22T05:02:04;9.25;;;4.78;;
58302;SDS011;44109;52.398;7.024;2023-07-22T05:04:32;9.75;;;4.68;;
58302;SDS011;44109;52.398;7.024;2023-07-22T05:07:00;11.00;;;4.25;;
58302;SDS011;44109;52.398;7.024;2023-07-22T05:09:29;9.05;;;4.65;;
58302;SDS011;44109;52.398;7.024;2023-07-22T05:11:56;9.57;;;5.68;;
58302;SDS011;44109;52.398;7.024;2023-07-22T05:14:24;6.22;;;4.18;;
58302;SDS011;44109;52.398;7.024;2023-07-22T05:16:52;8.13;;;4.05;;
58302;SDS011;44109;52.398;7.024;2023-07-22T05:19:19;8.70;;;4.78;;
58302;SDS011;44109;52.398;7.024;2023-07-22T05:21:47;13.75;;;4.47;;
58302;SDS011;44109;52.398;7.024;2023-07-22T05:24:14;9.70;;;4.88;;
58302;SDS011;44109;52.398;7.024;2023-07-22T05:26:43;9.75;;;5.32;;
58302;SDS011;44109;52.398;7.024;2023-07-22T05:29:11;9.68;;;5.40;;
58302;SDS011;44109;52.398;7.024;2023-07-22T05:31:38;7.25;;;4.47;;
58302;SDS011;44109;52.398;7.024;2023-07-22T05:34:06;8.00;;;4.43;;
58302;SDS011;44109;52.398;7.024;2023-07-22T05:36:34;11.27;;;5.10;;
58302;SDS011;44109;52.398;7.024;2023-07-22T05:39:02;10.77;;;4.40;;
58302;SDS011;44109;52.398;7.024;2023-07-22T05:41:30;8.63;;;4.85;;
58302;SDS011;44109;52.398;7.024;2023-07-22T05:44:01;7.38;;;4.35;;
58302;SDS011;44109;52.398;7.024;2023-07-22T05:46:28;8.73;;;4.65;;
58302;SDS011;44109;52.398;7.024;2023-07-22T05:48:56;11.43;;;4.78;;
58302;SDS011;44109;52.398;7.024;2023-07-22T05:51:24;11.18;;;5.97;;
58302;SDS011;44109;52.398;7.024;2023-07-22T05:53:52;9.65;;;5.50;;
58302;SDS011;44109;52.398;7.024;2023-07-22T05:56:19;8.85;;;4.85;;
58302;SDS011;44109;52.398;7.024;2023-07-22T05:58:47;8.27;;;5.72;;
58302;SDS011;44109;52.398;7.024;2023-07-22T06:01:16;10.95;;;5.53;;
58302;SDS011;44109;52.398;7.024;2023-07-22T06:03:44;9.27;;;4.85;;
58302;SDS011;44109;52.398;7.024;2023-07-22T06:06:11;8.82;;;4.20;;
58302;SDS011;44109;52.398;7.024;2023-07-22T06:08:39;6.85;;;4.15;;
58302;SDS011;44109;52.398;7.024;2023-07-22T06:11:06;8.48;;;4.50;;
58302;SDS011;44109;52.398;7.024;2023-07-22T06:13:34;7.82;;;4.82;;
58302;SDS011;44109;52.398;7.024;2023-07-22T06:16:02;10.35;;;5.30;;
58302;SDS011;44109;52.398;7.024;2023-07-22T06:18:31;10.70;;;5.25;;
58302;SDS011;44109;52.398;7.024;2023-07-22T06:20:58;13.43;;;5.50;;
58302;SDS011;44109;52.398;7.024;2023-07-22T06:23:26;8.85;;;4.57;;
58302;SDS011;44109;52.398;7.024;2023-07-22T06:25:54;11.55;;;6.10;;
58302;SDS011;44109;52.398;7.024;2023-07-22T06:28:21;10.23;;;5.07;;
58302;SDS011;44109;52.398;7.024;2023-07-22T06:30:49;8.32;;;4.07;;
58302;SDS011;44109;52.398;7.024;2023-07-22T06:33:16;10.45;;;5.60;;
58302;SDS011;44109;52.398;7.024;2023-07-22T06:35:45;7.18;;;4.25;;
58302;SDS011;44109;52.398;7.024;2023-07-22T06:38:13;10.55;;;4.68;;
58302;SDS011;44109;52.398;7.024;2023-07-22T06:40:41;11.18;;;5.65;;
58302;SDS011;44109;52.398;7.024;2023-07-22T06:43:08;9.32;;;5.57;;
58302;SDS011;44109;52.398;7.024;2023-07-22T06:45:36;11.50;;;5.95;;
58302;SDS011;44109;52.398;7.024;2023-07-22T06:48:04;11.85;;;5.05;;
58302;SDS011;44109;52.398;7.024;2023-07-22T06:50:32;12.50;;;5.38;;
58302;SDS011;44109;52.398;7.024;2023-07-22T06:53:00;13.98;;;7.03;;
58302;SDS011;44109;52.398;7.024;2023-07-22T06:55:29;7.55;;;4.78;;
58302;SDS011;44109;52.398;7.024;2023-07-22T06:57:57;11.88;;;5.82;;
58302;SDS011;44109;52.398;7.024;2023-07-22T07:00:25;12.80;;;5.95;;
58302;SDS011;44109;52.398;7.024;2023-07-22T07:02:53;9.20;;;5.75;;
58302;SDS011;44109;52.398;7.024;2023-07-22T07:05:21;13.25;;;6.63;;
58302;SDS011;44109;52.398;7.024;2023-07-22T07:07:49;11.07;;;5.85;;
58302;SDS011;44109;52.398;7.024;2023-07-22T07:10:17;9.90;;;6.07;;
58302;SDS011;44109;52.398;7.024;2023-07-22T07:12:45;10.07;;;5.50;;
58302;SDS011;44109;52.398;7.024;2023-07-22T07:15:13;14.05;;;5.45;;
58302;SDS011;44109;52.398;7.024;2023-07-22T07:17:41;14.52;;;6.10;;
58302;SDS011;44109;52.398;7.024;2023-07-22T07:20:08;8.80;;;5.25;;
58302;SDS011;44109;52.398;7.024;2023-07-22T07:22:37;15.10;;;6.20;;
58302;SDS011;44109;52.398;7.024;2023-07-22T07:25:05;10.93;;;4.88;;
58302;SDS011;44109;52.398;7.024;2023-07-22T07:27:35;8.48;;;4.70;;
58302;SDS011;44109;52.398;7.024;2023-07-22T07:30:02;9.65;;;4.22;;
58302;SDS011;44109;52.398;7.024;2023-07-22T07:32:31;9.65;;;4.60;;
58302;SDS011;44109;52.398;7.024;2023-07-22T07:34:59;8.68;;;4.38;;
58302;SDS011;44109;52.398;7.024;2023-07-22T07:37:26;9.15;;;4.13;;
58302;SDS011;44109;52.398;7.024;2023-07-22T07:39:54;7.97;;;4.18;;
58302;SDS011;44109;52.398;7.024;2023-07-22T07:42:25;9.48;;;5.15;;
58302;SDS011;44109;52.398;7.024;2023-07-22T07:44:54;9.02;;;5.15;;
58302;SDS011;44109;52.398;7.024;2023-07-22T07:47:22;9.40;;;3.80;;
58302;SDS011;44109;52.398;7.024;2023-07-22T07:49:49;9.32;;;4.95;;
58302;SDS011;44109;52.398;7.024;2023-07-22T07:52:17;9.70;;;4.95;;
58302;SDS011;44109;52.398;7.024;2023-07-22T07:54:44;10.13;;;5.38;;
58302;SDS011;44109;52.398;7.024;2023-07-22T07:57:12;8.13;;;5.25;;
58302;SDS011;44109;52.398;7.024;2023-07-22T07:59:39;8.43;;;5.00;;
58302;SDS011;44109;52.398;7.024;2023-07-22T08:02:08;7.20;;;4.13;;
58302;SDS011;44109;52.398;7.024;2023-07-22T08:04:36;7.60;;;4.75;;
58302;SDS011;44109;52.398;7.024;2023-07-22T08:07:05;11.13;;;5.22;;
58302;SDS011;44109;52.398;7.024;2023-07-22T08:09:33;8.18;;;4.00;;
58302;SDS011;44109;52.398;7.024;2023-07-22T08:12:01;8.57;;;4.65;;
58302;SDS011;44109;52.398;7.024;2023-07-22T08:14:29;11.45;;;4.43;;
58302;SDS011;44109;52.398;7.024;2023-07-22T08:16:56;7.50;;;4.32;;
58302;SDS011;44109;52.398;7.024;2023-07-22T08:19:25;10.27;;;5.05;;
58302;SDS011;44109;52.398;7.024;2023-07-22T08:21:53;10.18;;;4.60;;
58302;SDS011;44109;52.398;7.024;2023-07-22T08:24:21;7.07;;;4.47;;
58302;SDS011;44109;52.398;7.024;2023-07-22T08:26:48;7.30;;;3.78;;
58302;SDS011;44109;52.398;7.024;2023-07-22T08:29:16;9.73;;;4.95;;
58302;SDS011;44109;52.398;7.024;2023-07-22T08:31:43;10.32;;;4.03;;
58302;SDS011;44109;52.398;7.024;2023-07-22T08:34:11;7.10;;;3.60;;
58302;SDS011;44109;52.398;7.024;2023-07-22T08:36:40;8.15;;;3.83;;
58302;SDS011;44109;52.398;7.024;2023-07-22T08:39:08;4.75;;;2.38;;
58302;SDS011;44109;52.398;7.024;2023-07-22T08:41:36;6.15;;;3.20;;
58302;SDS011;44109;52.398;7.024;2023-07-22T08:44:04;9.73;;;3.92;;
58302;SDS011;44109;52.398;7.024;2023-07-22T08:46:35;4.68;;;2.83;;
58302;SDS011;44109;52.398;7.024;2023-07-22T08:49:06;4.57;;;2.92;;
58302;SDS011;44109;52.398;7.024;2023-07-22T08:51:36;9.95;;;4.38;;
58302;SDS011;44109;52.398;7.024;2023-07-22T08:54:05;5.88;;;3.08;;
58302;SDS011;44109;52.398;7.024;2023-07-22T08:56:35;6.75;;;3.65;;
58302;SDS011;44109;52.398;7.024;2023-07-22T08:59:04;10.43;;;3.80;;
58302;SDS011;44109;52.398;7.024;2023-07-22T09:01:32;6.38;;;3.33;;
58302;SDS011;44109;52.398;7.024;2023-07-22T09:04:01;4.57;;;2.83;;
58302;SDS011;44109;52.398;7.024;2023-07-22T09:06:30;6.68;;;2.47;;
58302;SDS011;44109;52.398;7.024;2023-07-22T09:08:58;5.45;;;2.53;;
58302;SDS011;44109;52.398;7.024;2023-07-22T09:11:31;4.35;;;2.63;;
58302;SDS011;44109;52.398;7.024;2023-07-22T09:13:59;6.43;;;3.03;;
58302;SDS011;44109;52.398;7.024;2023-07-22T09:16:30;5.82;;;2.67;;
58302;SDS011;44109;52.398;7.024;2023-07-22T09:18:58;3.88;;;2.17;;
58302;SDS011;44109;52.398;7.024;2023-07-22T09:21:26;4.88;;;2.70;;
58302;SDS011;44109;52.398;7.024;2023-07-22T09:23:54;4.68;;;2.45;;
58302;SDS011;44109;52.398;7.024;2023-07-22T09:26:22;5.22;;;2.42;;
58302;SDS011;44109;52.398;7.024;2023-07-22T09:28:51;4.97;;;2.28;;
58302;SDS011;44109;52.398;7.024;2023-07-22T09:31:22;4.05;;;2.38;;
58302;SDS011;44109;52.398;7.024;2023-07-22T09:33:51;4.38;;;2.28;;
58302;SDS011;44109;52.398;7.024;2023-07-22T09:36:20;5.25;;;2.55;;
58302;SDS011;44109;52.398;7.024;2023-07-22T09:38:58;5.47;;;2.30;;
58302;SDS011;44109;52.398;7.024;2023-07-22T09:41:28;6.68;;;2.92;;
58302;SDS011;44109;52.398;7.024;2023-07-22T09:43:58;5.05;;;2.33;;
58302;SDS011;44109;52.398;7.024;2023-07-22T09:46:31;4.25;;;2.10;;
58302;SDS011;44109;52.398;7.024;2023-07-22T09:49:02;4.25;;;2.28;;
58302;SDS011;44109;52.398;7.024;2023-07-22T09:51:34;3.88;;;2.47;;
58302;SDS011;44109;52.398;7.024;2023-07-22T09:54:04;5.35;;;1.98;;
58302;SDS011;44109;52.398;7.024;2023-07-22T09:56:43;4.30;;;2.35;;
58302;SDS011;44109;52.398;7.024;2023-07-22T09:59:13;6.47;;;3.17;;
58302;SDS011;44109;52.398;7.024;2023-07-22T10:01:44;3.67;;;2.00;;
58302;SDS011;44109;52.398;7.024;2023-07-22T10:04:15;4.90;;;2.45;;
58302;SDS011;44109;52.398;7.024;2023-07-22T10:06:45;4.88;;;2.13;;
58302;SDS011;44109;52.398;7.024;2023-07-22T10:09:13;4.28;;;2.35;;
58302;SDS011;44109;52.398;7.024;2023-07-22T10:11:44;4.75;;;2.60;;
58302;SDS011;44109;52.398;7.024;2023-07-22T10:14:11;2.92;;;1.58;;
58302;SDS011;44109;52.398;7.024;2023-07-22T10:16:42;3.72;;;1.92;;
58302;SDS011;44109;52.398;7.024;2023-07-22T10:19:10;6.78;;;2.53;;
58302;SDS011;44109;52.398;7.024;2023-07-22T10:21:39;5.60;;;2.78;;
58302;SDS011;44109;52.398;7.024;2023-07-22T10:24:07;5.40;;;2.45;;
58302;SDS011;44109;52.398;7.024;2023-07-22T10:26:37;5.65;;;2.08;;
58302;SDS011;44109;52.398;7.024;2023-07-22T10:29:07;10.88;;;3.40;;
58302;SDS011;44109;52.398;7.024;2023-07-22T10:31:38;4.45;;;2.28;;
58302;SDS011;44109;52.398;7.024;2023-07-22T10:34:06;5.00;;;2.83;;
58302;SDS011;44109;52.398;7.024;2023-07-22T10:36:34;7.45;;;3.20;;
58302;SDS011;44109;52.398;7.024;2023-07-22T10:39:03;4.30;;;2.72;;
58302;SDS011;44109;52.398;7.024;2023-07-22T10:41:32;6.05;;;2.83;;
58302;SDS011;44109;52.398;7.024;2023-07-22T10:44:05;5.88;;;2.25;;
58302;SDS011;44109;52.398;7.024;2023-07-22T10:46:39;5.55;;;2.85;;
58302;SDS011;44109;52.398;7.024;2023-07-22T10:49:09;4.68;;;2.67;;
58302;SDS011;44109;52.398;7.024;2023-07-22T10:51:38;9.70;;;3.80;;
58302;SDS011;44109;52.398;7.024;2023-07-22T10:54:12;5.72;;;3.22;;
58302;SDS011;44109;52.398;7.024;2023-07-22T10:56:42;5.82;;;2.78;;
58302;SDS011;44109;52.398;7.024;2023-07-22T10:59:11;6.78;;;3.63;;
58302;SDS011;44109;52.398;7.024;2023-07-22T11:01:41;11.15;;;3.22;;
58302;SDS011;44109;52.398;7.024;2023-07-22T11:04:12;6.57;;;3.67;;
58302;SDS011;44109;52.398;7.024;2023-07-22T11:06:52;5.07;;;3.53;;
58302;SDS011;44109;52.398;7.024;2023-07-22T11:09:38;8.48;;;3.67;;
58302;SDS011;44109;52.398;7.024;2023-07-22T11:12:09;8.35;;;3.53;;
58302;SDS011;44109;52.398;7.024;2023-07-22T11:14:45;3.60;;;2.63;;
58302;SDS011;44109;52.398;7.024;2023-07-22T11:17:17;6.22;;;3.35;;
58302;SDS011;44109;52.398;7.024;2023-07-22T11:19:54;4.00;;;1.95;;
58302;SDS011;44109;52.398;7.024;2023-07-22T11:22:22;6.45;;;2.78;;
58302;SDS011;44109;52.398;7.024;2023-07-22T11:24:49;9.73;;;3.45;;
58302;SDS011;44109;52.398;7.024;2023-07-22T11:27:17;6.35;;;3.30;;
58302;SDS011;44109;52.398;7.024;2023-07-22T11:29:45;6.72;;;3.60;;
58302;SDS011;44109;52.398;7.024;2023-07-22T11:32:15;5.80;;;4.03;;
58302;SDS011;44109;52.398;7.024;2023-07-22T11:34:47;4.35;;;2.85;;
58302;SDS011;44109;52.398;7.024;2023-07-22T11:37:15;6.10;;;3.38;;
58302;SDS011;44109;52.398;7.024;2023-07-22T11:39:42;7.63;;;3.67;;
58302;SDS011;44109;52.398;7.024;2023-07-22T11:42:10;7.80;;;3.83;;
58302;SDS011;44109;52.398;7.024;2023-07-22T11:44:39;4.63;;;2.67;;
58302;SDS011;44109;52.398;7.024;2023-07-22T11:47:07;5.28;;;2.75;;
58302;SDS011;44109;52.398;7.024;2023-07-22T11:49:36;6.57;;;3.45;;
58302;SDS011;44109;52.398;7.024;2023-07-22T11:52:07;3.90;;;2.35;;
58302;SDS011;44109;52.398;7.024;2023-07-22T11:54:37;6.57;;;2.88;;
58302;SDS011;44109;52.398;7.024;2023-07-22T11:57:09;5.10;;;2.13;;
58302;SDS011;44109;52.398;7.024;2023-07-22T11:59:39;4.78;;;2.20;;
58302;SDS011;44109;52.398;7.024;2023-07-22T12:02:12;5.07;;;2.28;;
58302;SDS011;44109;52.398;7.024;2023-07-22T12:04:44;5.60;;;2.42;;
58302;SDS011;44109;52.398;7.024;2023-07-22T12:07:23;5.43;;;2.10;;
58302;SDS011;44109;52.398;7.024;2023-07-22T12:09:52;5.55;;;2.72;;
58302;SDS011;44109;52.398;7.024;2023-07-22T12:12:21;5.97;;;2.30;;
58302;SDS011;44109;52.398;7.024;2023-07-22T12:15:01;4.22;;;2.40;;
58302;SDS011;44109;52.398;7.024;2023-07-22T12:17:43;3.90;;;1.75;;
58302;SDS011;44109;52.398;7.024;2023-07-22T12:20:14;3.65;;;2.13;;
58302;SDS011;44109;52.398;7.024;2023-07-22T12:22:42;4.60;;;2.33;;
58302;SDS011;44109;52.398;7.024;2023-07-22T12:25:09;5.25;;;2.50;;
58302;SDS011;44109;52.398;7.024;2023-07-22T12:27:37;7.20;;;2.90;;
58302;SDS011;44109;52.398;7.024;2023-07-22T12:30:05;6.00;;;1.98;;
58302;SDS011;44109;52.398;7.024;2023-07-22T12:32:34;4.75;;;1.92;;
58302;SDS011;44109;52.398;7.024;2023-07-22T12:35:02;3.92;;;1.55;;
58302;SDS011;44109;52.398;7.024;2023-07-22T12:37:31;3.58;;;2.03;;
58302;SDS011;44109;52.398;7.024;2023-07-22T12:39:59;3.10;;;1.73;;
58302;SDS011;44109;52.398;7.024;2023-07-22T12:42:26;4.10;;;2.20;;
58302;SDS011;44109;52.398;7.024;2023-07-22T12:44:54;4.25;;;1.40;;
58302;SDS011;44109;52.398;7.024;2023-07-22T12:47:21;2.55;;;1.10;;
58302;SDS011;44109;52.398;7.024;2023-07-22T12:49:49;5.93;;;1.52;;
58302;SDS011;44109;52.398;7.024;2023-07-22T12:52:17;3.63;;;1.50;;
58302;SDS011;44109;52.398;7.024;2023-07-22T12:54:46;3.40;;;1.58;;
58302;SDS011;44109;52.398;7.024;2023-07-22T12:57:14;5.10;;;2.30;;
58302;SDS011;44109;52.398;7.024;2023-07-22T12:59:41;5.43;;;2.85;;
58302;SDS011;44109;52.398;7.024;2023-07-22T13:02:09;5.85;;;1.80;;
58302;SDS011;44109;52.398;7.024;2023-07-22T13:04:37;7.10;;;1.88;;
58302;SDS011;44109;52.398;7.024;2023-07-22T13:07:04;3.08;;;1.50;;
58302;SDS011;44109;52.398;7.024;2023-07-22T13:09:33;4.07;;;2.05;;
58302;SDS011;44109;52.398;7.024;2023-07-22T13:12:02;3.60;;;1.95;;
58302;SDS011;44109;52.398;7.024;2023-07-22T13:14:30;5.30;;;1.90;;
58302;SDS011;44109;52.398;7.024;2023-07-22T13:16:57;4.28;;;1.90;;
58302;SDS011;44109;52.398;7.024;2023-07-22T13:19:25;4.95;;;2.20;;
58302;SDS011;44109;52.398;7.024;2023-07-22T13:21:53;4.57;;;2.45;;
58302;SDS011;44109;52.398;7.024;2023-07-22T13:24:20;4.88;;;2.25;;
58302;SDS011;44109;52.398;7.024;2023-07-22T13:26:48;3.50;;;1.58;;
58302;SDS011;44109;52.398;7.024;2023-07-22T13:29:17;10.88;;;3.10;;
58302;SDS011;44109;52.398;7.024;2023-07-22T13:31:45;5.53;;;1.88;;
58302;SDS011;44109;52.398;7.024;2023-07-22T13:34:12;2.67;;;2.03;;
58302;SDS011;44109;52.398;7.024;2023-07-22T13:36:41;3.35;;;2.03;;
58302;SDS011;44109;52.398;7.024;2023-07-22T13:39:08;3.47;;;2.75;;
58302;SDS011;44109;52.398;7.024;2023-07-22T13:41:36;7.53;;;2.72;;
58302;SDS011;44109;52.398;7.024;2023-07-22T13:44:04;2.38;;;1.40;;
58302;SDS011;44109;52.398;7.024;2023-07-22T13:46:33;3.45;;;2.22;;
58302;SDS011;44109;52.398;7.024;2023-07-22T13:49:01;5.50;;;2.28;;
58302;SDS011;44109;52.398;7.024;2023-07-22T13:51:29;4.95;;;2.08;;
58302;SDS011;44109;52.398;7.024;2023-07-22T13:53:56;6.10;;;2.78;;
58302;SDS011;44109;52.398;7.024;2023-07-22T13:56:24;7.03;;;2.72;;
58302;SDS011;44109;52.398;7.024;2023-07-22T13:58:53;5.82;;;2.50;;
58302;SDS011;44109;52.398;7.024;2023-07-22T14:01:21;5.97;;;3.10;;
58302;SDS011;44109;52.398;7.024;2023-07-22T14:03:51;4.18;;;2.00;;
58302;SDS011;44109;52.398;7.024;2023-07-22T14:06:18;3.22;;;1.95;;
58302;SDS011;44109;52.398;7.024;2023-07-22T14:08:46;4.80;;;2.10;;
58302;SDS011;44109;52.398;7.024;2023-07-22T14:11:13;6.32;;;2.63;;
58302;SDS011;44109;52.398;7.024;2023-07-22T14:13:41;3.15;;;2.35;;
58302;SDS011;44109;52.398;7.024;2023-07-22T14:16:09;3.00;;;1.60;;
58302;SDS011;44109;52.398;7.024;2023-07-22T14:18:37;4.65;;;2.13;;
58302;SDS011;44109;52.398;7.024;2023-07-22T14:21:06;5.47;;;2.55;;
58302;SDS011;44109;52.398;7.024;2023-07-22T14:23:36;4.28;;;2.22;;
58302;SDS011;44109;52.398;7.024;2023-07-22T14:26:04;5.93;;;2.35;;
58302;SDS011;44109;52.398;7.024;2023-07-22T14:28:32;4.13;;;2.40;;
58302;SDS011;44109;52.398;7.024;2023-07-22T14:31:00;5.82;;;2.85;;
58302;SDS011;44109;52.398;7.024;2023-07-22T14:33:27;5.65;;;2.72;;
58302;SDS011;44109;52.398;7.024;2023-07-22T14:35:55;4.88;;;3.10;;
58302;SDS011;44109;52.398;7.024;2023-07-22T14:38:24;5.28;;;3.78;;
58302;SDS011;44109;52.398;7.024;2023-07-22T14:40:52;6.13;;;3.58;;
58302;SDS011;44109;52.398;7.024;2023-07-22T14:43:19;7.82;;;3.80;;
58302;SDS011;44109;52.398;7.024;2023-07-22T14:45:47;4.55;;;2.90;;
58302;SDS011;44109;52.398;7.024;2023-07-22T14:48:14;5.72;;;3.00;;
58302;SDS011;44109;52.398;7.024;2023-07-22T14:50:42;6.28;;;3.67;;
58302;SDS011;44109;52.398;7.024;2023-07-22T14:53:10;8.10;;;3.65;;